Time;durP1;ratioP1;P1;durP2;ratioP2;P2;SDS_P1;SDS_P2;PMS_P1;PMS_P2;Temp;Humidity;BMP_temperature;BMP_pressure;BME280_temperature;BME280_humidity;BME280_pressure;Samples;Min_cycle;Max_cycle;Signal;HPM_P1;HPM_P2
2022/08/12 00:43:32;;;;;;;;;;;;;;;;;;5016056;28;19924;-32
2022/08/12 00:48:43;;;;;;;;;;;;;;;;;;5016002;28;20396;-32
2022/08/12 00:51:09;;;;;;;;;;;;;;;;;;5016524;28;19918;-31
2022/08/12 00:53:35;;;;;;;;;;;;;;;;;;5015724;28;20233;-31
2022/08/12 00:56:01;;;;;;;;;;;;;;;;;;5015889;28;20000;-31
2022/08/12 00:58:30;;;;;;;;;;;;;;;;;;5015809;28;19940;-31
2022/08/12 01:00:56;;;;;;;;;;;;;;;;;;5015806;28;19910;-31
2022/08/12 01:03:22;;;;;;;;;;;;;;;;;;5015553;28;19922;-31
2022/08/12 01:11:37;;;;;;;;;;;;;;;;;;5014326;28;19917;-31
2022/08/12 01:14:03;;;;;;;;;;;;;;;;;;5014233;28;19913;-31
2022/08/12 01:16:29;;;;;;;;;;;;;;;;;;5014616;28;19920;-31
2022/08/12 01:18:55;;;;;;;;;;;;;;;;;;5015580;28;19944;-31
2022/08/12 01:21:21;;;;;;;;;;;;;;;;;;5015500;28;19924;-31
2022/08/12 01:23:47;;;;;;;;;;;;;;;;;;5015374;28;19910;-32
2022/08/12 01:26:13;;;;;;;;;;;;;;;;;;5015363;28;19914;-31
2022/08/12 01:28:39;;;;;;;;;;;;;;;;;;5015954;28;19970;-31
2022/08/12 01:31:05;;;;;;;;;;;;;;;;;;5015942;28;19910;-31
2022/08/12 01:33:31;;;;;;;;;;;;;;;;;;5015459;28;20363;-31
2022/08/12 01:35:58;;;;;;;;;;;;;;;;;;5015403;28;19913;-31
2022/08/12 01:38:24;;;;;;;;;;;;;;;;;;5015803;28;19936;-31
2022/08/12 01:40:50;;;;;;;;;;;;;;;;;;5015339;28;19948;-31
2022/08/12 01:43:16;;;;;;;;;;;;;;;;;;5015203;28;19921;-31
2022/08/12 01:45:42;;;;;;;;;;;;;;;;;;5015426;28;19921;-32
2022/08/12 01:48:08;;;;;;;;;;;;;;;;;;5015476;28;20233;-31
2022/08/12 01:50:35;;;;;;;;;;;;;;;;;;5015532;28;20256;-31
2022/08/12 01:53:01;;;;;;;;;;;;;;;;;;5015061;28;19921;-31
2022/08/12 01:55:27;;;;;;;;;;;;;;;;;;5015454;28;20245;-31
2022/08/12 01:57:53;;;;;;;;;;;;;;;;;;5015385;28;19917;-31
2022/08/12 02:00:19;;;;;;;;;;;;;;;;;;5015125;28;19922;-31
2022/08/12 02:02:45;;;;;;;;;;;;;;;;;;5015219;28;19971;-31
2022/08/12 02:13:25;;;;;;;;;;;;;;;;;;5018813;28;19928;-32
2022/08/12 02:15:51;;;;;;;;;;;;;;;;;;5018769;28;20251;-32
2022/08/12 02:18:17;;;;;;;;;;;;;;;;;;5018684;28;20011;-31
2022/08/12 02:20:43;;;;;;;;;;;;;;;;;;5018671;28;20405;-32
2022/08/12 02:23:09;;;;;;;;;;;;;;;;;;5018798;28;19921;-31
2022/08/12 02:25:35;;;;;;;;;;;;;;;;;;5018740;28;19990;-31
2022/08/12 02:28:01;;;;;;;;;;;;;;;;;;5018533;28;20296;-31
2022/08/12 02:30:30;;;;;;;;;;;;;;;;;;5018713;28;19909;-31
2022/08/12 02:32:56;;;;;;;;;;;;;;;;;;5018610;28;19933;-31
2022/08/12 02:35:22;;;;;;;;;;;;;;;;;;5018433;28;19910;-30
2022/08/12 02:37:48;;;;;;;;;;;;;;;;;;5018369;28;19913;-31
2022/08/12 02:40:14;;;;;;;;;;;;;;;;;;5018863;28;19910;-31
2022/08/12 02:42:40;;;;;;;;;;;;;;;;;;5018145;28;19938;-31
2022/08/12 02:45:07;;;;;;;;;;;;;;;;;;5018074;28;19922;-31
2022/08/12 02:47:33;;;;;;;;;;;;;;;;;;5018097;28;20344;-31
2022/08/12 02:49:59;;;;;;;;;;;;;;;;;;5018670;28;20008;-31
2022/08/12 02:52:25;;;;;;;;;;;;;;;;;;5018240;28;20303;-31
2022/08/12 02:54:52;;;;;;;;;;;;;;;;;;5018553;28;19914;-31
2022/08/12 02:57:18;;;;;;;;;;;;;;;;;;5018002;28;19910;-31
2022/08/12 02:59:47;;;;;;;;;;;;;;;;;;5018515;28;19914;-32
2022/08/12 03:02:13;;;;;;;;;;;;;;;;;;5017619;28;19913;-31
2022/08/12 03:04:39;;;;;;;;;;;;;;;;;;5017812;28;20023;-32
2022/08/12 03:07:05;;;;;;;;;;;;;;;;;;5017836;28;19949;-31
2022/08/12 03:09:31;;;;;;;;;;;;;;;;;;5017744;28;19914;-31
2022/08/12 03:11:58;;;;;;;;;;;;;;;;;;5017671;28;20241;-31
2022/08/12 03:14:24;;;;;;;;;;;;;;;;;;5017646;28;19921;-31
2022/08/12 03:16:50;;;;;;;;;;;;;;;;;;5016884;28;19917;-31
2022/08/12 03:19:16;;;;;;;;;;;;;;;;;;5018379;28;19913;-31
2022/08/12 03:21:42;;;;;;;;;;;;;;;;;;5018068;28;20260;-31
2022/08/12 03:24:08;;;;;;;;;;;;;;;;;;5017450;28;20261;-30
2022/08/12 03:26:34;;;;;;;;;;;;;;;;;;5017351;28;20378;-31
2022/08/12 03:29:00;;;;;;;;;;;;;;;;;;5017925;28;19917;-32
2022/08/12 03:31:28;;;;;;;;;;;;;;;;;;5017298;28;20048;-31
2022/08/12 03:33:54;;;;;;;;;;;;;;;;;;5017188;28;20020;-31
2022/08/12 03:36:20;;;;;;;;;;;;;;;;;;5017770;28;19965;-30
2022/08/12 03:38:55;;;;;;;;;;;;;;;;;;5017191;28;19914;-32
2022/08/12 03:41:34;;;;;;;;;;;;;;;;;;5017457;28;19910;-31
2022/08/12 04:00:28;;;;;;;;;;;;;;;;;;5016831;28;19934;-31
2022/08/12 04:03:00;;;;;;;;;;;;;;;;;;5016662;28;20000;-31
2022/08/12 04:05:26;;;;;;;;;;;;;;;;;;5016407;28;19913;-32
2022/08/12 04:07:52;;;;;;;;;;;;;;;;;;5016384;28;19924;-31
2022/08/12 04:10:18;;;;;;;;;;;;;;;;;;5016956;28;19913;-31
2022/08/12 04:15:29;;;;;;;;;;;;;;;;;;5016324;28;19925;-33
2022/08/12 04:17:55;;;;;;;;;;;;;;;;;;5016484;28;20278;-32
2022/08/12 04:20:21;;;;;;;;;;;;;;;;;;5015988;28;19920;-31
2022/08/12 04:22:47;;;;;;;;;;;;;;;;;;5016477;28;20280;-31
2022/08/12 04:25:13;;;;;;;;;;;;;;;;;;5016347;28;19920;-31
2022/08/12 04:27:39;;;;;;;;;;;;;;;;;;5015806;28;19920;-32
2022/08/12 04:30:06;;;;;;;;;;;;;;;;;;5016485;28;20284;-31
2022/08/12 04:32:32;;;;;;;;;;;;;;;;;;5015872;28;20370;-31
2022/08/12 04:34:58;;;;;;;;;;;;;;;;;;5016054;28;19913;-31
2022/08/12 04:37:24;;;;;;;;;;;;;;;;;;5016751;28;20013;-31
2022/08/12 04:39:50;;;;;;;;;;;;;;;;;;5015910;28;19949;-31
2022/08/12 04:42:16;;;;;;;;;;;;;;;;;;5015794;28;19909;-31
2022/08/12 04:44:43;;;;;;;;;;;;;;;;;;5015691;28;20000;-31
2022/08/12 04:47:09;;;;;;;;;;;;;;;;;;5016136;28;19920;-31
2022/08/12 04:49:35;;;;;;;;;;;;;;;;;;5015723;28;20009;-30
2022/08/12 04:52:02;;;;;;;;;;;;;;;;;;5015633;28;19925;-31
2022/08/12 04:54:28;;;;;;;;;;;;;;;;;;5016753;28;20237;-32
2022/08/12 04:56:54;;;;;;;;;;;;;;;;;;5015975;28;20003;-31
2022/08/12 04:59:20;;;;;;;;;;;;;;;;;;5015573;28;20328;-32
2022/08/12 05:01:46;;;;;;;;;;;;;;;;;;5015589;28;19910;-32
2022/08/12 05:04:12;;;;;;;;;;;;;;;;;;5023019;28;20011;-32
2022/08/12 05:06:38;;;;;;;;;;;;;;;;;;5015391;28;20368;-32
2022/08/12 05:09:04;;;;;;;;;;;;;;;;;;5015496;28;19945;-31
2022/08/12 05:11:30;;;;;;;;;;;;;;;;;;5015499;28;19937;-32
2022/08/12 05:13:56;;;;;;;;;;;;;;;;;;5015337;28;19913;-31
2022/08/12 05:16:22;;;;;;;;;;;;;;;;;;5015378;28;19920;-31
2022/08/12 05:18:48;;;;;;;;;;;;;;;;;;5015368;28;19986;-30
2022/08/12 05:21:14;;;;;;;;;;;;;;;;;;5015267;28;19914;-31
2022/08/12 05:23:41;;;;;;;;;;;;;;;;;;5015186;28;20415;-31
2022/08/12 05:26:07;;;;;;;;;;;;;;;;;;5016169;28;19913;-31
2022/08/12 05:28:33;;;;;;;;;;;;;;;;;;5015084;28;19913;-31
2022/08/12 05:31:02;;;;;;;;;;;;;;;;;;5015367;28;20071;-31
2022/08/12 05:33:36;;;;;;;;;;;;;;;;;;5015195;28;19924;-31
2022/08/12 05:36:02;;;;;;;;;;;;;;;;;;5015612;28;19975;-31
2022/08/12 05:41:19;;;;;;;;;;;;;;;;;;5018736;28;19924;-31
2022/08/12 05:43:45;;;;;;;;;;;;;;;;;;5019068;28;19921;-31
2022/08/12 05:46:11;;;;;;;;;;;;;;;;;;5019074;28;20352;-31
2022/08/12 05:48:37;;;;;;;;;;;;;;;;;;5019625;28;20009;-32
2022/08/12 05:51:03;;;;;;;;;;;;;;;;;;5019246;28;20028;-31
2022/08/12 05:53:29;;;;;;;;;;;;;;;;;;5018647;28;19913;-31
2022/08/12 05:55:55;;;;;;;;;;;;;;;;;;5019215;28;19909;-32
2022/08/12 05:58:21;;;;;;;;;;;;;;;;;;5019460;28;20003;-29
2022/08/12 06:00:47;;;;;;;;;;;;;;;;;;5018846;28;20352;-31
2022/08/12 06:03:16;;;;;;;;;;;;;;;;;;5018527;28;19914;-32
2022/08/12 06:05:45;;;;;;;;;;;;;;;;;;5018665;28;19917;-31
2022/08/12 06:08:11;;;;;;;;;;;;;;;;;;5018665;28;19910;-32
2022/08/12 06:10:37;;;;;;;;;;;;;;;;;;5018563;28;19914;-30
2022/08/12 06:13:03;;;;;;;;;;;;;;;;;;5018465;28;19913;-30
2022/08/12 06:15:29;;;;;;;;;;;;;;;;;;5019134;28;19914;-31
2022/08/12 06:17:55;;;;;;;;;;;;;;;;;;5018837;28;19913;-31
2022/08/12 06:20:21;;;;;;;;;;;;;;;;;;5018493;28;20264;-31
2022/08/12 06:22:47;;;;;;;;;;;;;;;;;;5018673;28;19913;-30
2022/08/12 06:25:17;;;;;;;;;;;;;;;;;;5018350;28;19928;-31
2022/08/12 06:27:46;;;;;;;;;;;;;;;;;;5018220;28;19974;-31
2022/08/12 06:30:14;;;;;;;;;;;;;;;;;;5018284;28;19952;-31
2022/08/12 06:32:40;;;;;;;;;;;;;;;;;;5018493;28;19928;-31
2022/08/12 06:35:06;;;;;;;;;;;;;;;;;;5018159;28;19909;-31
2022/08/12 06:37:32;;;;;;;;;;;;;;;;;;5018105;28;19914;-31
2022/08/12 06:39:58;;;;;;;;;;;;;;;;;;5018126;28;19909;-31
2022/08/12 06:45:09;;;;;;;;;;;;;;;;;;5017918;28;19925;-31
2022/08/12 06:47:35;;;;;;;;;;;;;;;;;;5018017;28;19913;-31
2022/08/12 06:50:02;;;;;;;;;;;;;;;;;;5017636;28;20247;-32
2022/08/12 06:52:30;;;;;;;;;;;;;;;;;;5017943;28;20272;-30
2022/08/12 06:54:57;;;;;;;;;;;;;;;;;;5017656;28;19916;-30
2022/08/12 06:57:26;;;;;;;;;;;;;;;;;;5017923;28;19956;-30
2022/08/12 06:59:52;;;;;;;;;;;;;;;;;;5018005;28;19933;-31
2022/08/12 07:02:19;;;;;;;;;;;;;;;;;;5018152;28;19990;-32
2022/08/12 07:04:46;;;;;;;;;;;;;;;;;;5017348;28;19922;-32
2022/08/12 07:07:12;;;;;;;;;;;;;;;;;;5017917;28;19913;-32
2022/08/12 07:09:38;;;;;;;;;;;;;;;;;;5017499;28;20008;-31
2022/08/12 07:12:04;;;;;;;;;;;;;;;;;;5017769;28;19925;-32
2022/08/12 07:14:30;;;;;;;;;;;;;;;;;;5017678;28;20375;-31
2022/08/12 07:17:00;;;;;;;;;;;;;;;;;;5017748;28;19917;-32
2022/08/12 07:19:26;;;;;;;;;;;;;;;;;;5017315;28;19920;-32
2022/08/12 07:21:53;;;;;;;;;;;;;;;;;;5017257;28;19917;-31
2022/08/12 07:24:19;;;;;;;;;;;;;;;;;;5017211;28;19925;-31
2022/08/12 07:26:45;;;;;;;;;;;;;;;;;;5017356;28;19918;-32
2022/08/12 07:29:12;;;;;;;;;;;;;;;;;;5017049;28;19925;-30
2022/08/12 07:31:37;;;;;;;;;;;;;;;;;;5018019;28;19918;-32
2022/08/12 07:34:04;;;;;;;;;;;;;;;;;;5016895;28;20380;-31
2022/08/12 07:36:31;;;;;;;;;;;;;;;;;;5016956;28;19927;-31
2022/08/12 07:38:57;;;;;;;;;;;;;;;;;;5017497;28;20210;-32
2022/08/12 07:41:24;;;;;;;;;;;;;;;;;;5017100;28;19928;-32
2022/08/12 07:43:50;;;;;;;;;;;;;;;;;;5016818;28;19918;-31
2022/08/12 07:46:16;;;;;;;;;;;;;;;;;;5016760;28;19917;-31
2022/08/12 07:48:42;;;;;;;;;;;;;;;;;;5017555;28;19913;-32
2022/08/12 07:51:08;;;;;;;;;;;;;;;;;;5016758;28;20241;-32
2022/08/12 07:53:35;;;;;;;;;;;;;;;;;;5016766;28;19913;-31
2022/08/12 07:56:01;;;;;;;;;;;;;;;;;;5016637;28;19910;-31
2022/08/12 07:58:27;;;;;;;;;;;;;;;;;;5016946;28;19924;-30
2022/08/12 08:00:56;;;;;;;;;;;;;;;;;;5016553;28;19910;-30
2022/08/12 08:03:23;;;;;;;;;;;;;;;;;;5015840;28;20296;-31
2022/08/12 08:05:49;;;;;;;;;;;;;;;;;;5016717;28;19918;-31
2022/08/12 08:08:15;;;;;;;;;;;;;;;;;;5016988;28;20386;-31
2022/08/12 08:10:41;;;;;;;;;;;;;;;;;;5016708;28;19957;-31
2022/08/12 08:13:07;;;;;;;;;;;;;;;;;;5016569;28;20272;-32
2022/08/12 08:15:38;;;;;;;;;;;;;;;;;;5016326;28;19910;-32
2022/08/12 08:18:04;;;;;;;;;;;;;;;;;;5016567;28;19925;-30
2022/08/12 08:20:32;;;;;;;;;;;;;;;;;;5016294;28;20264;-31
2022/08/12 08:22:58;;;;;;;;;;;;;;;;;;5016087;28;19913;-31
2022/08/12 08:25:34;;;;;;;;;;;;;;;;;;5016029;28;19967;-31
2022/08/12 08:28:00;;;;;;;;;;;;;;;;;;5016490;28;19918;-32
2022/08/12 08:30:26;;;;;;;;;;;;;;;;;;5016345;28;19953;-31
2022/08/12 08:32:52;;;;;;;;;;;;;;;;;;5016012;28;19913;-31
2022/08/12 08:35:21;;;;;;;;;;;;;;;;;;5016290;28;19913;-31
2022/08/12 08:37:47;;;;;;;;;;;;;;;;;;5015998;28;19917;-33
2022/08/12 08:42:57;;;;;;;;;;;;;;;;;;5015912;28;19980;-31
2022/08/12 08:45:24;;;;;;;;;;;;;;;;;;5015867;28;20005;-31
2022/08/12 08:47:50;;;;;;;;;;;;;;;;;;5015853;28;19921;-31
2022/08/12 08:50:16;;;;;;;;;;;;;;;;;;5015757;28;19910;-31
2022/08/12 08:52:42;;;;;;;;;;;;;;;;;;5015869;28;20024;-31
2022/08/12 08:55:08;;;;;;;;;;;;;;;;;;5016016;28;19910;-31
2022/08/12 08:57:34;;;;;;;;;;;;;;;;;;5016216;28;19921;-32
2022/08/12 09:00:01;;;;;;;;;;;;;;;;;;5015798;28;19914;-32
2022/08/12 09:02:27;;;;;;;;;;;;;;;;;;5015612;28;19913;-31
2022/08/12 09:04:53;;;;;;;;;;;;;;;;;;5015340;28;19921;-31
2022/08/12 09:07:20;;;;;;;;;;;;;;;;;;5015621;28;19964;-31
2022/08/12 09:09:46;;;;;;;;;;;;;;;;;;5015536;28;19971;-32
2022/08/12 09:14:57;;;;;;;;;;;;;;;;;;5015454;28;20344;-31
2022/08/12 09:17:23;;;;;;;;;;;;;;;;;;5015338;28;19924;-31
2022/08/12 09:19:49;;;;;;;;;;;;;;;;;;5015575;28;20000;-31
2022/08/12 09:22:15;;;;;;;;;;;;;;;;;;5015702;28;19913;-31
2022/08/12 09:24:41;;;;;;;;;;;;;;;;;;5014184;28;20344;-31
2022/08/12 09:27:07;;;;;;;;;;;;;;;;;;5015183;28;19910;-31
2022/08/12 09:29:33;;;;;;;;;;;;;;;;;;5015478;28;19921;-31
2022/08/12 09:32:00;;;;;;;;;;;;;;;;;;5015411;28;19910;-31
2022/08/12 09:34:28;;;;;;;;;;;;;;;;;;5015085;28;19921;-31
2022/08/12 09:36:54;;;;;;;;;;;;;;;;;;5015253;28;19914;-31
2022/08/12 09:39:20;;;;;;;;;;;;;;;;;;5015363;28;20256;-32
2022/08/12 09:45:19;;;;;;;;;;;;;;;;;;5015089;28;19913;-31
2022/08/12 09:47:21;;;;;;;;;;;;;;;;;;5015136;28;20368;-31
2022/08/12 09:49:48;;;;;;;;;;;;;;;;;;5015237;28;19960;-32
2022/08/12 09:52:14;;;;;;;;;;;;;;;;;;5014964;28;20303;-32
2022/08/12 09:54:40;;;;;;;;;;;;;;;;;;5015483;28;19917;-31
2022/08/12 09:57:10;;;;;;;;;;;;;;;;;;5014987;28;20259;-32
2022/08/12 09:59:37;;;;;;;;;;;;;;;;;;5015084;28;19910;-31
2022/08/12 10:02:03;;;;;;;;;;;;;;;;;;5015105;28;19913;-32
2022/08/12 10:04:29;;;;;;;;;;;;;;;;;;5014612;28;19980;-32
2022/08/12 10:06:55;;;;;;;;;;;;;;;;;;5014969;28;19914;-31
2022/08/12 10:09:21;;;;;;;;;;;;;;;;;;5014983;28;20249;-31
2022/08/12 10:14:43;;;;;;;;;;;;;;;;;;5013517;28;19918;-31
2022/08/12 10:17:09;;;;;;;;;;;;;;;;;;5014733;28;19956;-30
2022/08/12 10:19:36;;;;;;;;;;;;;;;;;;5014679;28;19917;-32
2022/08/12 10:22:04;;;;;;;;;;;;;;;;;;5014566;28;19924;-31
2022/08/12 10:24:30;;;;;;;;;;;;;;;;;;5014610;28;19925;-32
2022/08/12 10:29:43;;;;;;;;;;;;;;;;;;5018298;28;19960;-32
2022/08/12 10:32:11;;;;;;;;;;;;;;;;;;5018142;28;20363;-31
2022/08/12 10:34:38;;;;;;;;;;;;;;;;;;5018227;28;20233;-31
2022/08/12 10:37:04;;;;;;;;;;;;;;;;;;5018070;28;20259;-31
2022/08/12 10:39:32;;;;;;;;;;;;;;;;;;5018673;28;20001;-31
2022/08/12 10:44:42;;;;;;;;;;;;;;;;;;5017939;28;19975;-31
2022/08/12 10:47:08;;;;;;;;;;;;;;;;;;5017927;28;19913;-31
2022/08/12 10:49:35;;;;;;;;;;;;;;;;;;5018231;28;19914;-31
2022/08/12 10:52:01;;;;;;;;;;;;;;;;;;5018020;28;19924;-31
2022/08/12 10:54:27;;;;;;;;;;;;;;;;;;5017788;28;19913;-31
2022/08/12 10:56:53;;;;;;;;;;;;;;;;;;5017748;28;19948;-31
2022/08/12 10:59:22;;;;;;;;;;;;;;;;;;5017655;28;19914;-31
2022/08/12 11:01:48;;;;;;;;;;;;;;;;;;5018411;28;19914;-32
2022/08/12 11:04:14;;;;;;;;;;;;;;;;;;5017312;28;20384;-31
2022/08/12 11:06:43;;;;;;;;;;;;;;;;;;5017623;28;20260;-30
2022/08/12 11:09:09;;;;;;;;;;;;;;;;;;5017566;28;19916;-31
2022/08/12 11:11:35;;;;;;;;;;;;;;;;;;5017639;28;19913;-31
2022/08/12 11:14:01;;;;;;;;;;;;;;;;;;5017659;28;19914;-31
2022/08/12 11:16:31;;;;;;;;;;;;;;;;;;5017464;28;19913;-31
2022/08/12 11:18:57;;;;;;;;;;;;;;;;;;5017411;28;20256;-31
2022/08/12 11:21:23;;;;;;;;;;;;;;;;;;5017805;28;19963;-31
2022/08/12 11:23:49;;;;;;;;;;;;;;;;;;5017107;28;19932;-30
2022/08/12 11:26:15;;;;;;;;;;;;;;;;;;5016165;28;20337;-30
2022/08/12 11:28:41;;;;;;;;;;;;;;;;;;5017177;28;20392;-31
2022/08/12 11:31:07;;;;;;;;;;;;;;;;;;5017369;28;19967;-31
2022/08/12 11:33:33;;;;;;;;;;;;;;;;;;5016915;28;19913;-31
2022/08/12 11:35:59;;;;;;;;;;;;;;;;;;5017068;28;20361;-32
2022/08/12 11:38:25;;;;;;;;;;;;;;;;;;5016116;28;20403;-31
2022/08/12 11:40:51;;;;;;;;;;;;;;;;;;5017144;28;19910;-30
2022/08/12 11:43:17;;;;;;;;;;;;;;;;;;5016816;28;19914;-30
2022/08/12 11:45:43;;;;;;;;;;;;;;;;;;5016819;28;19952;-30
2022/08/12 11:48:09;;;;;;;;;;;;;;;;;;5017311;28;19914;-30
2022/08/12 11:50:35;;;;;;;;;;;;;;;;;;5016728;28;20337;-31
2022/08/12 11:53:01;;;;;;;;;;;;;;;;;;5016653;28;20366;-31
2022/08/12 11:55:28;;;;;;;;;;;;;;;;;;5016544;28;19909;-31
2022/08/12 11:57:54;;;;;;;;;;;;;;;;;;5016504;28;19921;-31
2022/08/12 12:00:20;;;;;;;;;;;;;;;;;;5016470;28;19921;-32
2022/08/12 12:02:46;;;;;;;;;;;;;;;;;;5016331;28;19913;-31
2022/08/12 12:05:18;;;;;;;;;;;;;;;;;;5015457;28;21188;-31
2022/08/12 12:07:44;;;;;;;;;;;;;;;;;;5016280;28;19913;-31
2022/08/12 12:10:10;;;;;;;;;;;;;;;;;;5016842;28;19952;-31
2022/08/12 12:12:36;;;;;;;;;;;;;;;;;;5016176;28;19924;-31
2022/08/12 12:15:04;;;;;;;;;;;;;;;;;;5016659;28;20311;-31
2022/08/12 12:17:30;;;;;;;;;;;;;;;;;;5016202;28;19972;-31
2022/08/12 12:19:56;;;;;;;;;;;;;;;;;;5016141;28;19910;-32
2022/08/12 12:22:22;;;;;;;;;;;;;;;;;;5016120;28;19914;-31
2022/08/12 12:24:49;;;;;;;;;;;;;;;;;;5016422;28;20303;-32
2022/08/12 12:27:15;;;;;;;;;;;;;;;;;;5016372;28;19913;-31
2022/08/12 12:29:41;;;;;;;;;;;;;;;;;;5016056;28;20374;-32
2022/08/12 12:32:07;;;;;;;;;;;;;;;;;;5016008;28;19916;-30
2022/08/12 12:34:33;;;;;;;;;;;;;;;;;;5016557;28;19914;-31
2022/08/12 12:36:59;;;;;;;;;;;;;;;;;;5016017;28;19940;-31
2022/08/12 12:39:25;;;;;;;;;;;;;;;;;;5016170;28;20319;-30
2022/08/12 12:41:51;;;;;;;;;;;;;;;;;;5016405;28;19909;-31
2022/08/12 12:44:17;;;;;;;;;;;;;;;;;;5015840;28;19914;-31
2022/08/12 12:46:43;;;;;;;;;;;;;;;;;;5015676;28;19917;-30
2022/08/12 12:49:09;;;;;;;;;;;;;;;;;;5015426;28;19924;-31
2022/08/12 12:51:35;;;;;;;;;;;;;;;;;;5015641;28;19914;-32
2022/08/12 12:54:01;;;;;;;;;;;;;;;;;;5015682;28;19909;-32
2022/08/12 12:56:27;;;;;;;;;;;;;;;;;;5015658;28;19920;-32
2022/08/12 12:58:53;;;;;;;;;;;;;;;;;;5015656;28;20264;-31
2022/08/12 13:01:28;;;;;;;;;;;;;;;;;;5015682;28;19909;-32
2022/08/12 13:03:55;;;;;;;;;;;;;;;;;;5015671;28;19948;-32
2022/08/12 13:06:24;;;;;;;;;;;;;;;;;;5015345;28;19924;-30
2022/08/12 13:08:50;;;;;;;;;;;;;;;;;;5015301;28;19921;-32
2022/08/12 13:11:17;;;;;;;;;;;;;;;;;;5015584;28;20040;-31
2022/08/12 13:13:43;;;;;;;;;;;;;;;;;;5015209;28;19996;-31
2022/08/12 13:16:09;;;;;;;;;;;;;;;;;;5015305;28;19949;-31
2022/08/12 13:18:35;;;;;;;;;;;;;;;;;;5015369;28;19914;-32
2022/08/12 13:21:01;;;;;;;;;;;;;;;;;;5015470;28;19910;-32
2022/08/12 13:23:27;;;;;;;;;;;;;;;;;;5015342;28;20020;-31
2022/08/12 13:25:54;;;;;;;;;;;;;;;;;;5015864;28;20020;-31
2022/08/12 13:28:23;;;;;;;;;;;;;;;;;;5015730;28;19917;-32
2022/08/12 13:30:49;;;;;;;;;;;;;;;;;;5015278;28;20358;-31
2022/08/12 13:33:15;;;;;;;;;;;;;;;;;;5015035;28;20008;-32
2022/08/12 13:35:42;;;;;;;;;;;;;;;;;;5015082;28;19917;-32
2022/08/12 13:38:09;;;;;;;;;;;;;;;;;;5015089;28;20261;-32
2022/08/12 13:40:35;;;;;;;;;;;;;;;;;;5015127;28;19909;-31
2022/08/12 13:43:01;;;;;;;;;;;;;;;;;;5015460;28;19914;-31
2022/08/12 13:45:27;;;;;;;;;;;;;;;;;;5015122;28;19936;-31
2022/08/12 13:47:56;;;;;;;;;;;;;;;;;;5015150;28;20323;-31
2022/08/12 13:50:22;;;;;;;;;;;;;;;;;;5014980;28;20359;-31
2022/08/12 13:52:49;;;;;;;;;;;;;;;;;;5015380;28;19914;-31
2022/08/12 13:55:15;;;;;;;;;;;;;;;;;;5015208;28;19920;-31
2022/08/12 13:57:42;;;;;;;;;;;;;;;;;;5015299;28;19913;-32
2022/08/12 14:00:08;;;;;;;;;;;;;;;;;;5014997;28;19910;-31
2022/08/12 14:02:35;;;;;;;;;;;;;;;;;;5019145;28;20055;-30
2022/08/12 14:05:01;;;;;;;;;;;;;;;;;;5018505;28;19940;-31
2022/08/12 14:07:27;;;;;;;;;;;;;;;;;;5019118;28;20237;-31
2022/08/12 14:12:38;;;;;;;;;;;;;;;;;;5018766;28;19975;-31
2022/08/12 14:15:06;;;;;;;;;;;;;;;;;;5018552;28;19917;-31
2022/08/12 14:17:32;;;;;;;;;;;;;;;;;;5019135;28;19913;-31
2022/08/12 14:20:14;;;;;;;;;;;;;;;;;;5019127;28;19918;-32
2022/08/12 14:22:39;;;;;;;;;;;;;;;;;;5018479;28;20177;-31
2022/08/12 14:25:05;;;;;;;;;;;;;;;;;;5018395;28;20012;-31
2022/08/12 14:27:31;;;;;;;;;;;;;;;;;;5018665;28;20311;-30
2022/08/12 14:29:57;;;;;;;;;;;;;;;;;;5018863;28;19968;-31
2022/08/12 14:32:24;;;;;;;;;;;;;;;;;;5018199;28;19914;-30
2022/08/12 14:34:50;;;;;;;;;;;;;;;;;;5018728;28;19932;-31
2022/08/12 14:37:16;;;;;;;;;;;;;;;;;;5018170;28;20329;-31
2022/08/12 14:39:42;;;;;;;;;;;;;;;;;;5018443;28;19964;-31
2022/08/12 14:42:08;;;;;;;;;;;;;;;;;;5018369;28;19973;-31
2022/08/12 14:44:34;;;;;;;;;;;;;;;;;;5018086;28;19937;-31
2022/08/12 14:47:00;;;;;;;;;;;;;;;;;;5018077;28;20016;-31
2022/08/12 14:49:26;;;;;;;;;;;;;;;;;;5018053;28;19914;-31
2022/08/12 14:51:52;;;;;;;;;;;;;;;;;;5018243;28;20332;-31
2022/08/12 14:54:19;;;;;;;;;;;;;;;;;;5017889;28;19980;-31
2022/08/12 14:56:49;;;;;;;;;;;;;;;;;;5018222;28;20363;-31
2022/08/12 15:01:59;;;;;;;;;;;;;;;;;;5018170;28;19920;-31
2022/08/12 15:04:27;;;;;;;;;;;;;;;;;;5017541;28;19921;-31
2022/08/12 15:06:53;;;;;;;;;;;;;;;;;;5018469;28;19932;-31
2022/08/12 15:09:19;;;;;;;;;;;;;;;;;;5017866;28;20222;-31
2022/08/12 15:11:48;;;;;;;;;;;;;;;;;;5016453;28;19967;-30
2022/08/12 15:14:14;;;;;;;;;;;;;;;;;;5017468;28;19925;-30
2022/08/12 15:16:40;;;;;;;;;;;;;;;;;;5017543;28;19917;-31
2022/08/12 15:19:07;;;;;;;;;;;;;;;;;;5017672;28;19913;-30
2022/08/12 15:21:36;;;;;;;;;;;;;;;;;;5017470;28;20345;-30
2022/08/12 15:24:02;;;;;;;;;;;;;;;;;;5017247;28;19924;-31
2022/08/12 15:26:34;;;;;;;;;;;;;;;;;;5017309;28;19962;-31
2022/08/12 15:29:00;;;;;;;;;;;;;;;;;;5017583;28;19917;-30
2022/08/12 15:31:26;;;;;;;;;;;;;;;;;;5017583;28;20256;-31
2022/08/12 15:33:54;;;;;;;;;;;;;;;;;;5017379;28;20230;-30
2022/08/12 15:36:20;;;;;;;;;;;;;;;;;;5017630;28;19909;-31
2022/08/12 15:38:45;;;;;;;;;;;;;;;;;;5017042;28;20370;-30
2022/08/12 15:41:13;;;;;;;;;;;;;;;;;;5016945;28;19920;-30
2022/08/12 15:43:39;;;;;;;;;;;;;;;;;;5017015;28;19917;-31
2022/08/12 15:46:05;;;;;;;;;;;;;;;;;;5016799;28;20328;-31
2022/08/12 15:48:34;;;;;;;;;;;;;;;;;;5017259;28;20340;-31
2022/08/12 15:51:00;;;;;;;;;;;;;;;;;;5016951;28;20011;-31
2022/08/12 15:56:10;;;;;;;;;;;;;;;;;;5017154;28;19959;-30
2022/08/12 15:58:42;;;;;;;;;;;;;;;;;;5016701;28;19913;-31
2022/08/12 16:01:10;;;;;;;;;;;;;;;;;;5016594;28;19996;-31
2022/08/12 16:03:36;;;;;;;;;;;;;;;;;;5016222;28;19914;-31
2022/08/12 16:06:02;;;;;;;;;;;;;;;;;;5017029;28;19925;-31
2022/08/12 16:08:35;;;;;;;;;;;;;;;;;;5016756;28;19936;-31
2022/08/12 16:11:01;;;;;;;;;;;;;;;;;;5017183;28;19917;-32
2022/08/12 16:13:27;;;;;;;;;;;;;;;;;;5016577;28;19914;-31
2022/08/12 16:15:53;;;;;;;;;;;;;;;;;;5016626;28;19910;-31
2022/08/12 16:18:18;;;;;;;;;;;;;;;;;;5016410;28;19945;-32
2022/08/12 16:20:45;;;;;;;;;;;;;;;;;;5016372;28;19910;-31
2022/08/12 16:23:11;;;;;;;;;;;;;;;;;;5015598;28;19917;-31
2022/08/12 16:25:37;;;;;;;;;;;;;;;;;;5016171;28;19914;-31
2022/08/12 16:28:03;;;;;;;;;;;;;;;;;;5016183;28;19960;-31
2022/08/12 16:30:29;;;;;;;;;;;;;;;;;;5016065;28;19910;-30
2022/08/12 16:32:55;;;;;;;;;;;;;;;;;;5016253;28;19995;-31
2022/08/12 16:35:21;;;;;;;;;;;;;;;;;;5016655;28;19964;-31
2022/08/12 16:37:47;;;;;;;;;;;;;;;;;;5016036;28;19917;-31
2022/08/12 16:40:13;;;;;;;;;;;;;;;;;;5016334;28;19944;-30
2022/08/12 16:42:39;;;;;;;;;;;;;;;;;;5015822;28;20314;-30
2022/08/12 16:45:05;;;;;;;;;;;;;;;;;;5015785;28;19948;-31
2022/08/12 16:47:31;;;;;;;;;;;;;;;;;;5016041;28;19959;-31
2022/08/12 16:49:57;;;;;;;;;;;;;;;;;;5016256;28;19913;-31
2022/08/12 16:52:23;;;;;;;;;;;;;;;;;;5014660;28;19913;-31
2022/08/12 16:54:49;;;;;;;;;;;;;;;;;;5015654;28;19909;-32
2022/08/12 16:57:15;;;;;;;;;;;;;;;;;;5015738;28;19941;-32
2022/08/12 16:59:41;;;;;;;;;;;;;;;;;;5015551;28;19944;-30
2022/08/12 17:02:12;;;;;;;;;;;;;;;;;;5015897;28;20009;-31
2022/08/12 17:04:38;;;;;;;;;;;;;;;;;;5015384;28;19925;-31
2022/08/12 17:07:08;;;;;;;;;;;;;;;;;;5015684;28;19948;-31
2022/08/12 17:09:34;;;;;;;;;;;;;;;;;;5015453;28;19917;-31
2022/08/12 17:12:00;;;;;;;;;;;;;;;;;;5015959;28;19917;-31
2022/08/12 17:14:26;;;;;;;;;;;;;;;;;;5015454;28;19916;-31
2022/08/12 17:16:53;;;;;;;;;;;;;;;;;;5015525;28;19920;-31
2022/08/12 17:19:19;;;;;;;;;;;;;;;;;;5015433;28;19913;-31
2022/08/12 17:21:45;;;;;;;;;;;;;;;;;;5015333;28;20000;-30
2022/08/12 17:24:15;;;;;;;;;;;;;;;;;;5015312;28;20272;-33
2022/08/12 17:26:43;;;;;;;;;;;;;;;;;;5015511;28;19913;-33
2022/08/12 17:29:10;;;;;;;;;;;;;;;;;;5015298;28;19914;-33
2022/08/12 17:31:36;;;;;;;;;;;;;;;;;;5015473;28;19918;-32
2022/08/12 17:34:02;;;;;;;;;;;;;;;;;;5015029;28;20260;-33
2022/08/12 17:36:28;;;;;;;;;;;;;;;;;;5014731;28;19910;-32
2022/08/12 17:38:54;;;;;;;;;;;;;;;;;;5015416;28;20352;-31
2022/08/12 17:41:20;;;;;;;;;;;;;;;;;;5015974;28;19923;-32
2022/08/12 17:43:51;;;;;;;;;;;;;;;;;;5015268;28;19944;-32
2022/08/12 17:46:17;;;;;;;;;;;;;;;;;;5015653;28;19913;-32
2022/08/12 17:48:43;;;;;;;;;;;;;;;;;;5015435;28;19913;-32
2022/08/12 17:51:11;;;;;;;;;;;;;;;;;;5015093;28;19910;-31
2022/08/12 17:53:37;;;;;;;;;;;;;;;;;;5015302;28;19939;-33
2022/08/12 17:56:04;;;;;;;;;;;;;;;;;;5015705;28;19996;-31
2022/08/12 17:58:30;;;;;;;;;;;;;;;;;;5015068;28;19917;-32
2022/08/12 18:00:57;;;;;;;;;;;;;;;;;;5015083;28;19916;-32
2022/08/12 18:03:22;;;;;;;;;;;;;;;;;;5014958;28;20261;-31
2022/08/12 18:05:49;;;;;;;;;;;;;;;;;;5015161;28;19913;-32
2022/08/12 18:08:15;;;;;;;;;;;;;;;;;;5014948;28;20004;-31
2022/08/12 18:13:28;;;;;;;;;;;;;;;;;;5014916;28;19924;-31
2022/08/12 18:15:54;;;;;;;;;;;;;;;;;;5014947;28;19916;-32
2022/08/12 18:18:20;;;;;;;;;;;;;;;;;;5014937;28;19917;-32
2022/08/12 18:20:46;;;;;;;;;;;;;;;;;;5014899;28;19917;-32
2022/08/12 18:23:12;;;;;;;;;;;;;;;;;;5014714;28;20005;-31
2022/08/12 18:28:23;;;;;;;;;;;;;;;;;;5014762;28;19972;-31
2022/08/12 18:30:49;;;;;;;;;;;;;;;;;;5015038;28;20287;-31
2022/08/12 18:33:15;;;;;;;;;;;;;;;;;;5014685;28;20004;-31
2022/08/12 18:35:41;;;;;;;;;;;;;;;;;;5015148;28;20355;-31